createdAt,value
2017-04-07T00:00:00.938Z,0
2017-04-07T00:01:00.897Z,0
2017-04-07T00:02:00.898Z,0
2017-04-07T00:03:00.649Z,0
2017-04-07T00:04:00.604Z,0
2017-04-07T00:05:00.976Z,0
2017-04-07T00:06:00.662Z,0
2017-04-07T00:07:01.084Z,0
2017-04-07T00:08:00.993Z,0
2017-04-07T00:09:00.682Z,0
2017-04-07T00:10:00.969Z,0
2017-04-07T00:11:00.702Z,0
2017-04-07T00:12:00.961Z,0
2017-04-07T00:13:00.974Z,0
2017-04-07T00:14:00.713Z,0
2017-04-07T00:15:00.675Z,0
2017-04-07T00:16:01.043Z,0
2017-04-07T00:17:01.042Z,0
2017-04-07T00:18:00.998Z,0
2017-04-07T00:19:01.009Z,0
2017-04-07T00:20:01.074Z,0
2017-04-07T00:21:01.027Z,0
2017-04-07T00:22:00.774Z,0
2017-04-07T00:23:00.717Z,0
2017-04-07T00:24:00.821Z,0
2017-04-07T00:25:01.048Z,0
2017-04-07T00:26:00.838Z,0
2017-04-07T00:27:02.499Z,0
2017-04-07T00:28:01.109Z,0
2017-04-07T00:29:00.802Z,0
2017-04-07T00:30:01.134Z,0
2017-04-07T00:31:00.858Z,0
2017-04-07T00:32:00.820Z,0
2017-04-07T00:33:01.148Z,0
2017-04-07T00:34:01.101Z,0
2017-04-07T00:35:01.102Z,0
2017-04-07T00:36:00.967Z,0
2017-04-07T00:37:01.224Z,0
2017-04-07T00:38:02.062Z,0
2017-04-07T00:39:01.232Z,0
2017-04-07T00:40:00.508Z,0
2017-04-07T00:41:02.279Z,0
2017-04-07T00:42:00.838Z,0
2017-04-07T00:43:01.164Z,0
2017-04-07T00:44:00.857Z,0
2017-04-07T00:45:00.919Z,0
2017-04-07T00:46:00.907Z,0
2017-04-07T00:47:00.911Z,0
2017-04-07T00:48:00.874Z,0
2017-04-07T00:49:00.874Z,0
2017-04-07T00:50:01.515Z,0
2017-04-07T00:51:00.587Z,0
2017-04-07T00:52:01.417Z,0
2017-04-07T00:53:00.906Z,0
2017-04-07T00:54:01.287Z,0
2017-04-07T00:55:01.231Z,0
2017-04-07T00:56:01.237Z,0
2017-04-07T00:57:01.238Z,0
2017-04-07T00:58:01.245Z,0
2017-04-07T00:59:01.315Z,0
2017-04-07T01:00:00.998Z,0
2017-04-07T01:01:01.295Z,0
2017-04-07T01:02:00.955Z,0
2017-04-07T01:03:01.277Z,0
2017-04-07T01:04:01.345Z,0
2017-04-07T01:05:01.345Z,0
2017-04-07T01:06:01.396Z,0
2017-04-07T01:07:01.048Z,0
2017-04-07T01:08:01.318Z,0
2017-04-07T01:09:01.012Z,0
2017-04-07T01:10:01.409Z,0
2017-04-07T01:11:01.333Z,0
2017-04-07T01:12:01.377Z,0
2017-04-07T01:13:01.394Z,0
2017-04-07T01:14:01.351Z,0
2017-04-07T01:15:01.454Z,0
2017-04-07T01:16:01.355Z,0
2017-04-07T01:17:01.372Z,0
2017-04-07T01:18:01.427Z,0
2017-04-07T01:19:01.421Z,0
2017-04-07T01:20:01.384Z,0
2017-04-07T01:21:01.393Z,0
2017-04-07T01:22:01.412Z,0
2017-04-07T01:23:01.715Z,0
2017-04-07T01:24:01.145Z,0
2017-04-07T01:25:01.470Z,0
2017-04-07T01:26:02.320Z,0
2017-04-07T01:27:01.537Z,0
2017-04-07T01:28:01.436Z,0
2017-04-07T01:29:01.503Z,0
2017-04-07T01:30:01.496Z,0
2017-04-07T01:31:00.830Z,0
2017-04-07T01:32:01.510Z,0
2017-04-07T01:33:01.488Z,0
2017-04-07T01:34:01.524Z,0
2017-04-07T01:35:01.216Z,0
2017-04-07T01:36:01.544Z,0
2017-04-07T01:37:01.495Z,0
2017-04-07T01:38:01.550Z,0
2017-04-07T01:39:01.547Z,0
2017-04-07T01:40:01.555Z,0
2017-04-07T01:41:01.571Z,0
2017-04-07T01:42:01.309Z,0
2017-04-07T01:43:01.519Z,0
2017-04-07T01:44:01.546Z,0
2017-04-07T01:45:01.604Z,0
2017-04-07T01:46:01.551Z,0
2017-04-07T01:47:02.003Z,0
2017-04-07T01:48:01.654Z,0
2017-04-07T01:49:01.316Z,0
2017-04-07T01:50:00.937Z,0
2017-04-07T01:51:01.588Z,0
2017-04-07T01:52:01.639Z,0
2017-04-07T01:53:01.633Z,0
2017-04-07T01:54:01.645Z,0
2017-04-07T01:55:01.597Z,0
2017-04-07T01:56:01.613Z,0
2017-04-07T01:57:01.357Z,0
2017-04-07T01:58:01.320Z,0
2017-04-07T01:59:01.684Z,0
2017-04-07T02:00:01.366Z,0
2017-04-07T02:01:01.692Z,0
2017-04-07T02:02:01.706Z,0
2017-04-07T02:03:01.442Z,0
2017-04-07T02:04:01.662Z,0
2017-04-07T02:05:01.405Z,0
2017-04-07T02:06:01.679Z,0
2017-04-07T02:07:01.411Z,0
2017-04-07T02:08:01.363Z,0
2017-04-07T02:09:01.796Z,0
2017-04-07T02:10:01.747Z,0
2017-04-07T02:11:01.388Z,0
2017-04-07T02:12:01.499Z,0
2017-04-07T02:13:01.089Z,0
2017-04-07T02:14:01.476Z,0
2017-04-07T02:15:01.461Z,0
2017-04-07T02:16:01.785Z,0
2017-04-07T02:17:01.792Z,0
2017-04-07T02:18:01.433Z,0
2017-04-07T02:19:01.810Z,0
2017-04-07T02:20:01.457Z,0
2017-04-07T02:21:01.784Z,0
2017-04-07T02:22:01.822Z,0
2017-04-07T02:23:01.926Z,0
2017-04-07T02:24:01.526Z,0
2017-04-07T02:25:01.816Z,0
2017-04-07T02:26:01.483Z,0
2017-04-07T02:27:01.811Z,0
2017-04-07T02:28:01.181Z,0
2017-04-07T02:29:01.860Z,0
2017-04-07T02:30:01.874Z,0
2017-04-07T02:31:01.947Z,0
2017-04-07T02:32:03.244Z,0
2017-04-07T02:33:01.538Z,0
2017-04-07T02:34:01.960Z,0
2017-04-07T02:35:01.907Z,0
2017-04-07T02:36:01.601Z,0
2017-04-07T02:37:01.923Z,0
2017-04-07T02:38:01.619Z,0
2017-04-07T02:39:01.981Z,0
2017-04-07T02:40:01.893Z,0
2017-04-07T02:41:01.641Z,0
2017-04-07T02:42:01.323Z,0
2017-04-07T02:43:01.603Z,0
2017-04-07T02:44:01.919Z,0
2017-04-07T02:45:01.991Z,0
2017-04-07T02:46:01.662Z,0
2017-04-07T02:47:02.039Z,0
2017-04-07T02:48:02.000Z,0
2017-04-07T02:49:01.700Z,0
2017-04-07T02:50:01.635Z,0
2017-04-07T02:51:01.649Z,0
2017-04-07T02:52:02.125Z,0
2017-04-07T02:53:02.095Z,0
2017-04-07T02:54:02.046Z,0
2017-04-07T02:55:01.996Z,0
2017-04-07T02:56:02.010Z,0
2017-04-07T02:57:02.053Z,0
2017-04-07T02:58:01.683Z,0
2017-04-07T02:59:02.116Z,0
2017-04-07T03:00:02.019Z,0
2017-04-07T03:01:02.079Z,0
2017-04-07T03:02:02.080Z,0
2017-04-07T03:03:01.826Z,0
2017-04-07T03:04:01.732Z,0
2017-04-07T03:05:01.730Z,0
2017-04-07T03:06:01.843Z,0
2017-04-07T03:07:01.746Z,0
2017-04-07T03:08:02.119Z,0
2017-04-07T03:09:02.182Z,0
2017-04-07T03:10:01.470Z,0
2017-04-07T03:11:01.823Z,0
2017-04-07T03:12:02.154Z,0
2017-04-07T03:13:02.099Z,0
2017-04-07T03:14:02.104Z,0
2017-04-07T03:15:01.808Z,0
2017-04-07T03:16:02.232Z,0
2017-04-07T03:17:02.138Z,0
2017-04-07T03:18:01.827Z,0
2017-04-07T03:19:01.609Z,0
2017-04-07T03:20:02.197Z,0
2017-04-07T03:21:01.838Z,0
2017-04-07T03:22:01.847Z,0
2017-04-07T03:23:02.162Z,0
2017-04-07T03:24:01.873Z,0
2017-04-07T03:25:03.518Z,0
2017-04-07T03:26:02.199Z,0
2017-04-07T03:27:02.026Z,0
2017-04-07T03:28:02.294Z,0
2017-04-07T03:29:02.309Z,0
2017-04-07T03:30:02.219Z,0
2017-04-07T03:31:01.906Z,0
2017-04-07T03:32:02.327Z,0
2017-04-07T03:33:02.325Z,0
2017-04-07T03:34:04.928Z,0
2017-04-07T03:35:01.936Z,0
2017-04-07T03:36:01.938Z,0
2017-04-07T03:37:02.300Z,0
2017-04-07T03:38:02.259Z,0
2017-04-07T03:39:01.787Z,0
2017-04-07T03:40:02.006Z,0
2017-04-07T03:41:02.072Z,0
2017-04-07T03:42:02.382Z,0
2017-04-07T03:43:02.038Z,0
2017-04-07T03:44:02.355Z,0
2017-04-07T03:45:01.987Z,0
2017-04-07T03:46:02.309Z,0
2017-04-07T03:47:02.363Z,0
2017-04-07T03:48:02.326Z,0
2017-04-07T03:49:02.015Z,0
2017-04-07T03:50:02.334Z,0
2017-04-07T03:51:02.453Z,0
2017-04-07T03:52:02.395Z,0
2017-04-07T03:53:02.145Z,0
2017-04-07T03:54:03.466Z,0
2017-04-07T03:55:01.743Z,0
2017-04-07T03:56:02.356Z,0
2017-04-07T03:57:02.492Z,0
2017-04-07T03:58:02.402Z,0
2017-04-07T03:59:02.389Z,0
2017-04-07T04:00:02.511Z,0
2017-04-07T04:01:01.781Z,0
2017-04-07T04:02:02.468Z,0
2017-04-07T04:03:02.513Z,0
2017-04-07T04:04:02.438Z,0
2017-04-07T04:05:02.167Z,0
2017-04-07T04:06:02.514Z,0
2017-04-07T04:07:02.134Z,0
2017-04-07T04:08:02.499Z,0
2017-04-07T04:09:02.199Z,0
2017-04-07T04:10:02.462Z,0
2017-04-07T04:11:02.218Z,0
2017-04-07T04:12:02.277Z,0
2017-04-07T04:13:02.672Z,0
2017-04-07T04:14:02.535Z,0
2017-04-07T04:15:02.543Z,0
2017-04-07T04:16:02.612Z,0
2017-04-07T04:17:02.569Z,0
2017-04-07T04:18:02.531Z,0
2017-04-07T04:19:02.572Z,0
2017-04-07T04:20:02.575Z,0
2017-04-07T04:21:02.639Z,0
2017-04-07T04:22:02.601Z,0
2017-04-07T04:23:02.557Z,0
2017-04-07T04:24:02.558Z,0
2017-04-07T04:25:02.306Z,0
2017-04-07T04:26:02.300Z,0
2017-04-07T04:27:02.264Z,0
2017-04-07T04:28:02.587Z,0
2017-04-07T04:29:01.970Z,0
2017-04-07T04:30:02.597Z,0
2017-04-07T04:31:02.662Z,0
2017-04-07T04:32:02.661Z,0
2017-04-07T04:33:02.721Z,0
2017-04-07T04:34:02.738Z,0
2017-04-07T04:35:02.735Z,0
2017-04-07T04:36:02.635Z,0
2017-04-07T04:37:02.385Z,0
2017-04-07T04:38:02.653Z,0
2017-04-07T04:39:02.132Z,0
2017-04-07T04:40:02.771Z,0
2017-04-07T04:41:02.447Z,0
2017-04-07T04:42:02.045Z,0
2017-04-07T04:43:02.729Z,0
2017-04-07T04:44:02.178Z,0
2017-04-07T04:45:02.759Z,0
2017-04-07T04:46:02.377Z,0
2017-04-07T04:47:02.700Z,4
2017-04-07T04:48:02.451Z,4
2017-04-07T04:49:02.719Z,4
2017-04-07T04:50:02.095Z,4
2017-04-07T04:51:02.426Z,4
2017-04-07T04:52:02.418Z,4
2017-04-07T04:53:02.431Z,0
2017-04-07T04:54:02.531Z,4
2017-04-07T04:55:02.538Z,4
2017-04-07T04:56:02.864Z,4
2017-04-07T04:57:02.133Z,4
2017-04-07T04:58:02.505Z,4
2017-04-07T04:59:02.930Z,8
2017-04-07T05:00:02.565Z,4
2017-04-07T05:01:02.845Z,4
2017-04-07T05:02:03.469Z,8
2017-04-07T05:03:02.869Z,8
2017-04-07T05:04:02.808Z,8
2017-04-07T05:05:02.818Z,8
2017-04-07T05:06:02.520Z,8
2017-04-07T05:07:02.613Z,12
2017-04-07T05:08:02.831Z,8
2017-04-07T05:09:02.905Z,12
2017-04-07T05:10:02.530Z,12
2017-04-07T05:11:02.904Z,12
2017-04-07T05:12:02.539Z,12
2017-04-07T05:13:02.563Z,12
2017-04-07T05:14:02.560Z,12
2017-04-07T05:15:02.978Z,16
2017-04-07T05:16:02.671Z,12
2017-04-07T05:17:02.578Z,16
2017-04-07T05:18:02.950Z,16
2017-04-07T05:19:03.068Z,20
2017-04-07T05:20:02.924Z,20
2017-04-07T05:21:02.608Z,20
2017-04-07T05:22:02.604Z,20
2017-04-07T05:23:02.930Z,24
2017-04-07T05:24:02.516Z,28
2017-04-07T05:25:03.089Z,28
2017-04-07T05:26:02.957Z,28
2017-04-07T05:27:02.990Z,28
2017-04-07T05:28:02.693Z,28
2017-04-07T05:29:02.431Z,28
2017-04-07T05:30:03.074Z,28
2017-04-07T05:31:03.099Z,32
2017-04-07T05:32:02.984Z,32
2017-04-07T05:33:03.011Z,32
2017-04-07T05:34:03.008Z,36
2017-04-07T05:35:03.121Z,40
2017-04-07T05:36:02.707Z,40
2017-04-07T05:37:02.704Z,44
2017-04-07T05:38:03.073Z,44
2017-04-07T05:39:02.716Z,48
2017-04-07T05:40:02.970Z,52
2017-04-07T05:41:03.036Z,52
2017-04-07T05:42:02.748Z,56
2017-04-07T05:43:03.101Z,60
2017-04-07T05:44:03.114Z,64
2017-04-07T05:45:02.746Z,60
2017-04-07T05:46:02.768Z,60
2017-04-07T05:47:03.100Z,64
2017-04-07T05:48:03.207Z,68
2017-04-07T05:49:03.098Z,68
2017-04-07T05:50:03.161Z,68
2017-04-07T05:51:02.844Z,72
2017-04-07T05:52:03.179Z,72
2017-04-07T05:53:02.480Z,76
2017-04-07T05:54:02.874Z,72
2017-04-07T05:55:02.806Z,76
2017-04-07T05:56:02.818Z,80
2017-04-07T05:57:03.242Z,80
2017-04-07T05:58:02.932Z,84
2017-04-07T05:59:03.239Z,88
2017-04-07T06:00:03.221Z,92
2017-04-07T06:01:03.226Z,92
2017-04-07T06:02:02.920Z,92
2017-04-07T06:03:02.868Z,96
2017-04-07T06:04:03.235Z,96
2017-04-07T06:05:03.201Z,100
2017-04-07T06:06:02.818Z,104
2017-04-07T06:07:02.568Z,112
2017-04-07T06:08:03.311Z,116
2017-04-07T06:09:03.034Z,116
2017-04-07T06:10:03.239Z,120
2017-04-07T06:11:02.908Z,124
2017-04-07T06:12:03.237Z,120
2017-04-07T06:13:02.920Z,124
2017-04-07T06:14:02.976Z,132
2017-04-07T06:15:02.986Z,140
2017-04-07T06:16:03.384Z,148
2017-04-07T06:17:03.341Z,152
2017-04-07T06:18:03.015Z,152
2017-04-07T06:19:03.331Z,148
2017-04-07T06:20:03.391Z,148
2017-04-07T06:21:03.434Z,152
2017-04-07T06:22:02.986Z,152
2017-04-07T06:23:03.053Z,160
2017-04-07T06:24:03.360Z,160
2017-04-07T06:25:03.008Z,164
2017-04-07T06:26:03.071Z,168
2017-04-07T06:27:03.118Z,164
2017-04-07T06:28:03.072Z,168
2017-04-07T06:29:03.083Z,164
2017-04-07T06:30:02.725Z,172
2017-04-07T06:31:03.415Z,176
2017-04-07T06:32:03.054Z,180
2017-04-07T06:33:03.413Z,188
2017-04-07T06:34:03.120Z,184
2017-04-07T06:35:03.428Z,184
2017-04-07T06:36:03.076Z,188
2017-04-07T06:37:03.489Z,188
2017-04-07T06:38:03.397Z,188
2017-04-07T06:39:03.158Z,196
2017-04-07T06:40:03.460Z,200
2017-04-07T06:41:03.156Z,212
2017-04-07T06:42:03.164Z,208
2017-04-07T06:43:03.469Z,212
2017-04-07T06:44:03.434Z,220
2017-04-07T06:45:03.185Z,220
2017-04-07T06:46:03.555Z,220
2017-04-07T06:47:03.506Z,224
2017-04-07T06:48:03.536Z,228
2017-04-07T06:49:03.155Z,224
2017-04-07T06:50:03.225Z,228
2017-04-07T06:51:03.182Z,220
2017-04-07T06:52:03.584Z,228
2017-04-07T06:53:03.483Z,240
2017-04-07T06:54:03.232Z,244
2017-04-07T06:55:03.499Z,240
2017-04-07T06:56:03.502Z,244
2017-04-07T06:57:04.024Z,252
2017-04-07T06:58:03.198Z,256
2017-04-07T06:59:03.539Z,256
2017-04-07T07:00:03.587Z,260
2017-04-07T07:01:03.550Z,268
2017-04-07T07:02:03.544Z,276
2017-04-07T07:03:03.600Z,276
2017-04-07T07:04:03.347Z,276
2017-04-07T07:05:03.647Z,280
2017-04-07T07:06:03.665Z,284
2017-04-07T07:07:03.619Z,292
2017-04-07T07:08:03.623Z,308
2017-04-07T07:09:03.629Z,316
2017-04-07T07:10:03.593Z,328
2017-04-07T07:11:03.656Z,336
2017-04-07T07:12:03.620Z,344
2017-04-07T07:13:03.024Z,352
2017-04-07T07:14:03.663Z,356
2017-04-07T07:15:03.629Z,360
2017-04-07T07:16:04.532Z,360
2017-04-07T07:17:03.789Z,368
2017-04-07T07:18:03.377Z,392
2017-04-07T07:19:03.350Z,408
2017-04-07T07:20:03.713Z,420
2017-04-07T07:21:03.713Z,424
2017-04-07T07:22:03.777Z,424
2017-04-07T07:23:03.721Z,400
2017-04-07T07:24:03.459Z,380
2017-04-07T07:25:03.692Z,368
2017-04-07T07:26:03.379Z,360
2017-04-07T07:27:03.440Z,356
2017-04-07T07:28:04.602Z,364
2017-04-07T07:29:03.447Z,372
2017-04-07T07:30:03.399Z,372
2017-04-07T07:31:03.830Z,364
2017-04-07T07:32:03.784Z,356
2017-04-07T07:33:03.896Z,360
2017-04-07T07:34:03.163Z,364
2017-04-07T07:35:03.483Z,372
2017-04-07T07:36:03.804Z,372
2017-04-07T07:37:03.814Z,368
2017-04-07T07:38:03.138Z,364
2017-04-07T07:39:03.827Z,364
2017-04-07T07:40:03.260Z,360
2017-04-07T07:41:03.518Z,360
2017-04-07T07:42:03.845Z,364
2017-04-07T07:43:03.800Z,364
2017-04-07T07:44:03.858Z,372
2017-04-07T07:45:03.816Z,380
2017-04-07T07:46:03.811Z,384
2017-04-07T07:47:04.442Z,392
2017-04-07T07:48:03.942Z,384
2017-04-07T07:49:03.575Z,384
2017-04-07T07:50:03.219Z,392
2017-04-07T07:51:03.593Z,392
2017-04-07T07:52:03.272Z,392
2017-04-07T07:53:03.923Z,388
2017-04-07T07:54:03.558Z,388
2017-04-07T07:55:03.880Z,396
2017-04-07T07:56:03.943Z,400
2017-04-07T07:57:03.685Z,404
2017-04-07T07:58:03.949Z,408
2017-04-07T07:59:03.689Z,416
2017-04-07T08:00:04.018Z,420
2017-04-07T08:01:03.938Z,424
2017-04-07T08:02:05.386Z,428
2017-04-07T08:03:03.971Z,420
2017-04-07T08:04:03.928Z,424
2017-04-07T08:05:03.702Z,432
2017-04-07T08:06:03.997Z,440
2017-04-07T08:07:03.957Z,440
2017-04-07T08:08:03.950Z,436
2017-04-07T08:09:04.023Z,436
2017-04-07T08:10:04.161Z,432
2017-04-07T08:11:04.026Z,436
2017-04-07T08:12:03.986Z,436
2017-04-07T08:13:04.048Z,448
2017-04-07T08:14:04.055Z,448
2017-04-07T08:15:03.694Z,448
2017-04-07T08:16:04.169Z,456
2017-04-07T08:17:03.439Z,456
2017-04-07T08:18:03.725Z,448
2017-04-07T08:19:04.095Z,448
2017-04-07T08:20:04.147Z,452
2017-04-07T08:21:04.048Z,444
2017-04-07T08:22:04.062Z,452
2017-04-07T08:23:03.806Z,460
2017-04-07T08:24:04.081Z,464
2017-04-07T08:25:03.908Z,468
2017-04-07T08:26:04.137Z,472
2017-04-07T08:27:03.826Z,472
2017-04-07T08:28:04.099Z,472
2017-04-07T08:29:04.165Z,476
2017-04-07T08:30:03.841Z,480
2017-04-07T08:31:04.216Z,476
2017-04-07T08:32:04.235Z,476
2017-04-07T08:33:04.173Z,488
2017-04-07T08:34:05.393Z,496
2017-04-07T08:35:03.835Z,488
2017-04-07T08:36:04.194Z,484
2017-04-07T08:37:04.211Z,492
2017-04-07T08:38:04.159Z,496
2017-04-07T08:39:03.900Z,496
2017-04-07T08:40:04.202Z,500
2017-04-07T08:41:03.926Z,512
2017-04-07T08:42:04.256Z,528
2017-04-07T08:43:04.297Z,540
2017-04-07T08:44:04.254Z,548
2017-04-07T08:45:04.274Z,572
2017-04-07T08:46:04.214Z,580
2017-04-07T08:47:03.979Z,596
2017-04-07T08:48:03.924Z,612
2017-04-07T08:49:03.980Z,632
2017-04-07T08:50:04.353Z,648
2017-04-07T08:51:03.981Z,664
2017-04-07T08:52:04.319Z,668
2017-04-07T08:53:04.365Z,672
2017-04-07T08:54:04.337Z,688
2017-04-07T08:55:04.336Z,700
2017-04-07T08:56:04.402Z,708
2017-04-07T08:57:04.346Z,728
2017-04-07T08:58:04.001Z,716
2017-04-07T08:59:04.092Z,712
2017-04-07T09:00:04.313Z,716
2017-04-07T09:01:04.473Z,712
2017-04-07T09:02:04.341Z,708
2017-04-07T09:03:04.357Z,720
2017-04-07T09:04:05.017Z,736
2017-04-07T09:05:04.041Z,732
2017-04-07T09:06:04.048Z,740
2017-04-07T09:07:04.414Z,744
2017-04-07T09:08:04.123Z,740
2017-04-07T09:09:04.390Z,728
2017-04-07T09:10:04.250Z,732
2017-04-07T09:11:04.137Z,744
2017-04-07T09:12:03.786Z,752
2017-04-07T09:13:04.405Z,764
2017-04-07T09:14:04.471Z,764
2017-04-07T09:15:04.162Z,756
2017-04-07T09:16:04.224Z,756
2017-04-07T09:17:04.493Z,772
2017-04-07T09:18:04.445Z,788
2017-04-07T09:19:04.458Z,800
2017-04-07T09:20:04.458Z,788
2017-04-07T09:21:04.456Z,796
2017-04-07T09:22:04.480Z,820
2017-04-07T09:23:06.344Z,828
2017-04-07T09:24:04.544Z,840
2017-04-07T09:25:04.188Z,848
2017-04-07T09:26:04.559Z,852
2017-04-07T09:27:04.204Z,860
2017-04-07T09:28:04.251Z,856
2017-04-07T09:29:04.255Z,860
2017-04-07T09:30:04.274Z,876
2017-04-07T09:31:04.591Z,864
2017-04-07T09:32:04.603Z,848
2017-04-07T09:33:04.613Z,860
2017-04-07T09:34:04.580Z,868
2017-04-07T09:35:04.347Z,880
2017-04-07T09:36:04.681Z,876
2017-04-07T09:37:04.271Z,856
2017-04-07T09:38:04.653Z,860
2017-04-07T09:39:04.656Z,876
2017-04-07T09:40:04.649Z,884
2017-04-07T09:41:04.665Z,872
2017-04-07T09:42:04.619Z,848
2017-04-07T09:43:04.633Z,848
2017-04-07T09:44:04.688Z,852
2017-04-07T09:45:04.321Z,852
2017-04-07T09:46:04.697Z,864
2017-04-07T09:47:04.750Z,868
2017-04-07T09:48:04.402Z,868
2017-04-07T09:49:04.824Z,848
2017-04-07T09:50:04.719Z,828
2017-04-07T09:51:04.736Z,816
2017-04-07T09:52:04.381Z,812
2017-04-07T09:53:04.443Z,820
2017-04-07T09:54:07.245Z,828
2017-04-07T09:55:04.754Z,836
2017-04-07T09:56:04.767Z,844
2017-04-07T09:57:04.417Z,872
2017-04-07T09:58:04.734Z,908
2017-04-07T09:59:04.746Z,952
2017-04-07T10:00:04.171Z,980
2017-04-07T10:01:04.809Z,1020
2017-04-07T10:02:04.810Z,1028
2017-04-07T10:03:04.236Z,1000
2017-04-07T10:04:06.283Z,964
2017-04-07T10:05:04.786Z,924
2017-04-07T10:06:04.488Z,944
2017-04-07T10:07:04.804Z,1004
2017-04-07T10:08:04.812Z,1040
2017-04-07T10:09:04.862Z,1048
2017-04-07T10:10:05.316Z,1032
2017-04-07T10:11:04.942Z,980
2017-04-07T10:12:04.881Z,960
2017-04-07T10:13:04.534Z,916
2017-04-07T10:14:04.569Z,860
2017-04-07T10:15:04.870Z,864
2017-04-07T10:16:04.542Z,948
2017-04-07T10:17:04.654Z,1028
2017-04-07T10:18:04.983Z,1080
2017-04-07T10:19:04.935Z,1120
2017-04-07T10:20:04.310Z,1144
2017-04-07T10:21:04.583Z,1076
2017-04-07T10:22:04.646Z,1016
2017-04-07T10:23:04.894Z,1028
2017-04-07T10:24:04.952Z,1104
2017-04-07T10:25:04.993Z,1216
2017-04-07T10:26:04.671Z,1268
2017-04-07T10:27:04.360Z,1256
2017-04-07T10:28:04.759Z,1228
2017-04-07T10:29:04.690Z,1212
2017-04-07T10:30:04.428Z,1184
2017-04-07T10:31:05.030Z,1172
2017-04-07T10:32:04.981Z,1168
2017-04-07T10:33:04.824Z,1176
2017-04-07T10:34:04.734Z,1180
2017-04-07T10:35:05.041Z,1172
2017-04-07T10:36:05.057Z,1208
2017-04-07T10:37:04.879Z,1216
2017-04-07T10:38:04.766Z,1240
2017-04-07T10:39:04.771Z,1252
2017-04-07T10:40:05.091Z,1252
2017-04-07T10:41:05.115Z,1252
2017-04-07T10:42:05.097Z,1252
2017-04-07T10:43:05.108Z,1240
2017-04-07T10:44:05.078Z,1228
2017-04-07T10:45:04.810Z,1248
2017-04-07T10:46:05.119Z,1272
2017-04-07T10:47:05.085Z,1312
2017-04-07T10:48:04.837Z,1340
2017-04-07T10:49:05.100Z,1340
2017-04-07T10:50:05.103Z,1320
2017-04-07T10:51:06.312Z,1296
2017-04-07T10:52:04.807Z,1288
2017-04-07T10:53:04.891Z,1300
2017-04-07T10:54:06.396Z,1320
2017-04-07T10:55:04.934Z,1344
2017-04-07T10:56:04.853Z,1292
2017-04-07T10:57:05.147Z,1224
2017-04-07T10:58:05.202Z,1184
2017-04-07T10:59:05.221Z,1148
2017-04-07T11:00:05.288Z,1112
2017-04-07T11:01:05.226Z,1120
2017-04-07T11:02:05.265Z,1128
2017-04-07T11:03:05.243Z,1168
2017-04-07T11:04:04.936Z,1216
2017-04-07T11:05:05.249Z,1228
2017-04-07T11:06:05.002Z,1196
2017-04-07T11:07:05.281Z,1220
2017-04-07T11:08:04.908Z,1388
2017-04-07T11:09:05.253Z,1368
2017-04-07T11:10:04.979Z,1372
2017-04-07T11:11:05.308Z,1376
2017-04-07T11:12:04.943Z,1396
2017-04-07T11:13:05.044Z,1396
2017-04-07T11:14:05.013Z,1452
2017-04-07T11:15:04.695Z,1540
2017-04-07T11:16:05.337Z,1564
2017-04-07T11:17:05.299Z,1596
2017-04-07T11:18:05.396Z,1616
2017-04-07T11:19:05.355Z,1576
2017-04-07T11:20:05.308Z,1500
2017-04-07T11:21:05.415Z,1460
2017-04-07T11:22:05.388Z,1476
2017-04-07T11:23:05.390Z,1452
2017-04-07T11:24:05.038Z,1416
2017-04-07T11:25:05.446Z,1412
2017-04-07T11:26:05.091Z,1396
2017-04-07T11:27:05.369Z,1388
2017-04-07T11:28:05.365Z,1388
2017-04-07T11:29:05.385Z,1364
2017-04-07T11:30:04.862Z,1352
2017-04-07T11:31:05.076Z,1356
2017-04-07T11:32:05.453Z,1352
2017-04-07T11:33:05.460Z,1340
2017-04-07T11:34:05.163Z,1284
2017-04-07T11:35:05.484Z,1228
2017-04-07T11:36:05.513Z,1184
2017-04-07T11:37:05.224Z,1160
2017-04-07T11:38:05.179Z,1152
2017-04-07T11:39:05.200Z,1188
2017-04-07T11:40:05.737Z,1224
2017-04-07T11:41:05.813Z,1192
2017-04-07T11:42:05.483Z,1112
2017-04-07T11:43:05.165Z,1076
2017-04-07T11:44:04.861Z,1056
2017-04-07T11:45:05.517Z,988
2017-04-07T11:46:05.524Z,892
2017-04-07T11:47:05.569Z,796
2017-04-07T11:48:05.572Z,776
2017-04-07T11:49:05.256Z,768
2017-04-07T11:50:05.575Z,684
2017-04-07T11:51:05.275Z,612
2017-04-07T11:52:04.920Z,588
2017-04-07T11:53:05.573Z,596
2017-04-07T11:54:05.308Z,572
2017-04-07T11:55:05.671Z,540
2017-04-07T11:56:05.592Z,576
2017-04-07T11:57:05.388Z,636
2017-04-07T11:58:05.271Z,672
2017-04-07T11:59:05.286Z,688
2017-04-07T12:00:05.683Z,708
2017-04-07T12:01:05.613Z,740
2017-04-07T12:02:05.617Z,736
2017-04-07T12:03:05.639Z,744
2017-04-07T12:04:05.685Z,768
2017-04-07T12:05:05.636Z,796
2017-04-07T12:06:05.721Z,792
2017-04-07T12:07:05.656Z,808
2017-04-07T12:08:05.674Z,864
2017-04-07T12:09:05.351Z,916
2017-04-07T12:10:05.459Z,944
2017-04-07T12:11:05.741Z,968
2017-04-07T12:12:05.703Z,952
2017-04-07T12:13:05.430Z,956
2017-04-07T12:14:05.750Z,992
2017-04-07T12:15:05.412Z,1032
2017-04-07T12:16:05.405Z,1112
2017-04-07T12:17:05.842Z,1076
2017-04-07T12:18:05.838Z,1036
2017-04-07T12:19:05.845Z,1028
2017-04-07T12:20:05.823Z,1028
2017-04-07T12:21:05.817Z,1012
2017-04-07T12:22:07.064Z,936
2017-04-07T12:23:05.515Z,884
2017-04-07T12:24:05.785Z,848
2017-04-07T12:25:05.469Z,840
2017-04-07T12:26:05.781Z,880
2017-04-07T12:27:05.853Z,896
2017-04-07T12:28:05.874Z,916
2017-04-07T12:29:05.917Z,900
2017-04-07T12:30:05.868Z,880
2017-04-07T12:31:05.880Z,864
2017-04-07T12:32:05.841Z,860
2017-04-07T12:33:05.897Z,864
2017-04-07T12:34:05.617Z,872
2017-04-07T12:35:05.870Z,888
2017-04-07T12:36:05.924Z,900
2017-04-07T12:37:05.921Z,924
2017-04-07T12:38:05.896Z,920
2017-04-07T12:39:05.586Z,916
2017-04-07T12:40:05.641Z,880
2017-04-07T12:41:05.959Z,860
2017-04-07T12:42:05.607Z,860
2017-04-07T12:43:05.654Z,828
2017-04-07T12:44:05.924Z,768
2017-04-07T12:45:05.994Z,712
2017-04-07T12:46:05.748Z,704
2017-04-07T12:47:05.634Z,696
2017-04-07T12:48:05.057Z,700
2017-04-07T12:49:07.060Z,696
2017-04-07T12:50:06.020Z,696
2017-04-07T12:51:05.715Z,696
2017-04-07T12:52:06.037Z,692
2017-04-07T12:53:06.035Z,692
2017-04-07T12:54:06.048Z,680
2017-04-07T12:55:05.428Z,672
2017-04-07T12:56:06.121Z,680
2017-04-07T12:57:05.746Z,676
2017-04-07T12:58:06.088Z,656
2017-04-07T12:59:06.091Z,656
2017-04-07T13:00:05.785Z,640
2017-04-07T13:01:05.733Z,620
2017-04-07T13:02:07.614Z,612
2017-04-07T13:03:06.165Z,624
2017-04-07T13:04:05.806Z,680
2017-04-07T13:05:05.820Z,724
2017-04-07T13:06:06.089Z,768
2017-04-07T13:07:06.139Z,792
2017-04-07T13:08:05.835Z,808
2017-04-07T13:09:06.115Z,832
2017-04-07T13:10:05.965Z,844
2017-04-07T13:11:06.121Z,852
2017-04-07T13:12:06.176Z,836
2017-04-07T13:13:06.177Z,792
2017-04-07T13:14:06.289Z,724
2017-04-07T13:15:06.147Z,664
2017-04-07T13:16:06.265Z,636
2017-04-07T13:17:06.217Z,636
2017-04-07T13:18:06.264Z,652
2017-04-07T13:19:06.225Z,648
2017-04-07T13:20:06.277Z,640
2017-04-07T13:21:06.232Z,644
2017-04-07T13:22:06.301Z,656
2017-04-07T13:23:05.575Z,680
2017-04-07T13:24:06.256Z,724
2017-04-07T13:25:06.001Z,780
2017-04-07T13:26:06.377Z,824
2017-04-07T13:27:06.238Z,844
2017-04-07T13:28:06.295Z,840
2017-04-07T13:29:06.024Z,844
2017-04-07T13:30:05.678Z,860
2017-04-07T13:31:06.035Z,876
2017-04-07T13:32:06.377Z,888
2017-04-07T13:33:06.286Z,896
2017-04-07T13:34:06.021Z,904
2017-04-07T13:35:06.296Z,904
2017-04-07T13:36:06.295Z,908
2017-04-07T13:37:06.301Z,900
2017-04-07T13:38:06.318Z,896
2017-04-07T13:39:06.066Z,872
2017-04-07T13:40:06.421Z,852
2017-04-07T13:41:06.026Z,864
2017-04-07T13:42:06.342Z,864
2017-04-07T13:43:06.033Z,884
2017-04-07T13:44:05.784Z,896
2017-04-07T13:45:06.103Z,908
2017-04-07T13:46:06.159Z,936
2017-04-07T13:47:06.773Z,944
2017-04-07T13:48:06.399Z,932
2017-04-07T13:49:06.076Z,916
2017-04-07T13:50:06.090Z,920
2017-04-07T13:51:06.400Z,956
2017-04-07T13:52:06.520Z,1000
2017-04-07T13:53:06.770Z,1016
2017-04-07T13:54:06.156Z,1016
2017-04-07T13:55:06.171Z,996
2017-04-07T13:56:06.131Z,976
2017-04-07T13:57:05.822Z,976
2017-04-07T13:58:06.559Z,984
2017-04-07T13:59:06.510Z,984
2017-04-07T14:00:06.163Z,980
2017-04-07T14:01:06.630Z,976
2017-04-07T14:02:06.486Z,952
2017-04-07T14:03:06.504Z,916
2017-04-07T14:04:06.561Z,908
2017-04-07T14:05:06.581Z,884